Time;durP1;ratioP1;P1;durP2;ratioP2;P2;SDS_P1;SDS_P2;PMS_P1;PMS_P2;Temp;Humidity;BMP_temperature;BMP_pressure;BME280_temperature;BME280_humidity;BME280_pressure;Samples;Min_cycle;Max_cycle;Signal;HPM_P1;HPM_P2
2023/05/03 00:00:22;;;;;;;3.27;3.03;;;9.50;99.90;;;;;;4914363;29;20259;-57
2023/05/03 00:02:50;;;;;;;3.40;3.20;;;9.50;99.90;;;;;;4913730;29;20257;-58
2023/05/03 00:05:16;;;;;;;5.70;3.50;;;9.50;99.90;;;;;;4915537;29;20307;-58
2023/05/03 00:07:44;;;;;;;5.13;3.63;;;9.50;99.90;;;;;;4915394;29;20256;-58
2023/05/03 00:10:14;;;;;;;4.50;4.20;;;9.50;99.90;;;;;;4913154;29;20676;-58
2023/05/03 00:12:43;;;;;;;5.13;4.53;;;9.50;99.90;;;;;;4911407;29;20205;-58
2023/05/03 00:15:11;;;;;;;6.57;5.90;;;9.60;99.90;;;;;;4914405;29;20226;-58
2023/05/03 00:17:38;;;;;;;6.10;5.63;;;9.60;99.90;;;;;;4909316;29;20226;-58
2023/05/03 00:20:07;;;;;;;5.63;5.20;;;9.50;99.90;;;;;;4915755;29;20663;-58
2023/05/03 00:22:34;;;;;;;5.03;4.63;;;9.40;99.90;;;;;;4915520;29;20752;-58
2023/05/03 00:25:01;;;;;;;5.03;4.70;;;9.40;99.90;;;;;;4915364;29;20212;-57
2023/05/03 00:27:32;;;;;;;5.37;4.97;;;9.40;99.90;;;;;;4911216;29;20201;-58
2023/05/03 00:29:59;;;;;;;5.27;4.77;;;9.30;99.90;;;;;;4921631;29;20198;-58
2023/05/03 00:32:29;;;;;;;5.13;4.83;;;9.20;99.90;;;;;;4916924;29;20838;-59
2023/05/03 00:34:57;;;;;;;4.93;4.47;;;9.30;99.90;;;;;;4915838;29;20213;-58
2023/05/03 00:37:28;;;;;;;5.03;4.73;;;9.30;99.90;;;;;;4923503;29;20253;-58
2023/05/03 00:39:55;;;;;;;4.50;4.20;;;9.20;99.90;;;;;;4920431;29;20259;-57
2023/05/03 00:42:23;;;;;;;5.27;4.97;;;9.10;99.90;;;;;;4924823;29;20210;-58
2023/05/03 00:44:51;;;;;;;5.20;4.80;;;9.00;99.90;;;;;;4912265;29;20210;-58
2023/05/03 00:47:18;;;;;;;4.87;4.53;;;9.00;99.90;;;;;;4908098;29;20269;-58
2023/05/03 00:49:45;;;;;;;4.37;3.97;;;8.90;99.90;;;;;;4913314;29;20276;-59
2023/05/03 00:52:12;;;;;;;3.83;3.63;;;8.90;99.90;;;;;;4913719;29;20280;-58
2023/05/03 00:54:40;;;;;;;3.77;3.47;;;8.90;99.90;;;;;;4912361;29;20205;-58
2023/05/03 00:57:07;;;;;;;3.40;3.30;;;8.90;99.90;;;;;;4915078;29;20296;-58
2023/05/03 00:59:34;;;;;;;4.20;3.20;;;8.90;99.90;;;;;;4912833;29;20198;-58
2023/05/03 01:02:03;;;;;;;2.70;2.60;;;8.80;99.90;;;;;;4914739;29;20273;-58
2023/05/03 01:04:30;;;;;;;3.77;3.53;;;8.80;99.90;;;;;;4913040;29;20671;-58
2023/05/03 01:07:10;;;;;;;4.03;3.73;;;8.80;99.90;;;;;;4914786;29;20225;-58
2023/05/03 01:09:53;;;;;;;4.20;3.90;;;8.70;99.90;;;;;;4913413;29;20208;-58
2023/05/03 01:12:33;;;;;;;3.90;3.27;;;8.70;99.90;;;;;;4918681;29;20209;-57
2023/05/03 01:15:11;;;;;;;3.80;3.50;;;8.80;99.90;;;;;;4916084;29;20207;-58
2023/05/03 01:17:49;;;;;;;3.03;2.83;;;8.70;99.90;;;;;;4918438;29;20782;-58
2023/05/03 01:20:23;;;;;;;3.93;3.63;;;8.60;99.90;;;;;;4914639;29;20206;-58
2023/05/03 01:23:00;;;;;;;4.10;3.90;;;8.60;99.90;;;;;;4916685;29;20710;-58
2023/05/03 01:25:29;;;;;;;4.57;4.23;;;8.50;99.90;;;;;;4918339;29;20225;-58
2023/05/03 01:27:56;;;;;;;4.60;4.13;;;8.60;99.90;;;;;;4907393;29;20206;-58
2023/05/03 01:30:26;;;;;;;5.90;5.40;;;8.60;99.90;;;;;;4917335;29;20675;-58
2023/05/03 01:33:05;;;;;;;6.17;5.37;;;8.60;99.90;;;;;;4918080;29;20267;-57
2023/05/03 01:35:40;;;;;;;7.93;7.13;;;8.60;99.90;;;;;;4913815;29;20321;-57
2023/05/03 01:38:08;;;;;;;7.57;6.83;;;8.70;99.90;;;;;;4914222;29;20239;-57
2023/05/03 01:40:43;;;;;;;6.60;6.10;;;8.80;99.90;;;;;;4913369;29;20251;-58
2023/05/03 01:43:12;;;;;;;7.00;6.30;;;8.80;99.90;;;;;;4914758;29;20204;-57
2023/05/03 01:45:39;;;;;;;8.57;7.83;;;8.80;99.90;;;;;;4917660;29;20231;-58
2023/05/03 01:48:10;;;;;;;9.67;7.67;;;8.80;99.90;;;;;;4914153;29;20606;-58
2023/05/03 01:50:37;;;;;;;9.67;8.63;;;8.80;99.90;;;;;;4915656;29;20293;-58
2023/05/03 01:53:04;;;;;;;8.23;7.53;;;8.90;99.90;;;;;;4913271;29;20245;-58
2023/05/03 01:55:31;;;;;;;10.53;9.23;;;8.90;99.90;;;;;;4917599;29;20357;-58
2023/05/03 01:58:00;;;;;;;10.17;9.17;;;8.90;99.90;;;;;;4917586;29;20225;-58
2023/05/03 02:00:27;;;;;;;9.43;8.53;;;8.90;99.90;;;;;;4915963;29;20221;-58
2023/05/03 02:02:54;;;;;;;10.30;8.80;;;8.90;99.90;;;;;;4911179;29;20264;-58
2023/05/03 02:05:21;;;;;;;9.77;8.93;;;9.00;99.90;;;;;;4911665;29;20233;-58
2023/05/03 02:07:48;;;;;;;8.60;7.87;;;9.00;99.90;;;;;;4915083;29;20899;-58
2023/05/03 02:10:16;;;;;;;11.27;9.17;;;8.90;99.90;;;;;;4917402;29;20661;-58
2023/05/03 02:12:43;;;;;;;9.57;8.67;;;8.90;99.90;;;;;;4915923;29;20243;-57
2023/05/03 02:15:12;;;;;;;7.93;7.23;;;8.80;99.90;;;;;;4917202;29;20225;-58
2023/05/03 02:17:41;;;;;;;8.37;7.70;;;8.70;99.90;;;;;;4912492;29;20274;-57
2023/05/03 02:20:09;;;;;;;7.93;7.23;;;8.70;99.90;;;;;;4914341;29;20672;-58
2023/05/03 02:22:36;;;;;;;8.43;7.77;;;8.60;99.90;;;;;;4917009;29;20213;-58
2023/05/03 02:25:04;;;;;;;8.30;7.50;;;8.60;99.90;;;;;;4917152;29;20237;-57
2023/05/03 02:27:33;;;;;;;8.27;7.50;;;8.60;99.90;;;;;;4914709;29;20207;-58
2023/05/03 02:30:00;;;;;;;6.83;6.33;;;8.50;99.90;;;;;;4917026;29;20272;-59
2023/05/03 02:32:30;;;;;;;7.03;5.80;;;8.50;99.90;;;;;;4910479;29;20264;-58
2023/05/03 02:34:57;;;;;;;6.30;5.80;;;8.50;99.90;;;;;;4916842;29;20314;-58
2023/05/03 02:37:24;;;;;;;6.67;6.07;;;8.50;99.90;;;;;;4914476;29;20284;-58
2023/05/03 02:39:51;;;;;;;6.20;5.80;;;8.40;99.90;;;;;;4911752;29;20710;-58
2023/05/03 02:42:18;;;;;;;5.80;5.40;;;8.30;99.90;;;;;;4916755;29;20630;-58
2023/05/03 02:44:45;;;;;;;6.37;5.63;;;8.20;99.90;;;;;;4913829;29;20275;-58
2023/05/03 02:47:12;;;;;;;6.67;6.13;;;8.20;99.90;;;;;;4906448;29;20268;-58
2023/05/03 02:49:40;;;;;;;5.87;5.27;;;8.10;99.90;;;;;;4910763;29;20204;-57
2023/05/03 02:52:07;;;;;;;5.37;4.97;;;8.10;99.90;;;;;;4916694;29;20647;-58
2023/05/03 02:54:34;;;;;;;5.43;5.03;;;8.00;99.90;;;;;;4916433;29;20213;-57
2023/05/03 02:57:02;;;;;;;4.80;4.40;;;8.00;99.90;;;;;;4910423;29;20236;-58
2023/05/03 02:59:29;;;;;;;4.53;4.13;;;7.90;99.90;;;;;;4908296;29;20610;-57
2023/05/03 03:01:56;;;;;;;4.87;4.47;;;7.90;99.90;;;;;;4908121;29;20208;-58
2023/05/03 03:04:23;;;;;;;5.27;4.87;;;7.80;99.90;;;;;;4908697;29;20275;-57
2023/05/03 03:06:52;;;;;;;4.53;4.23;;;7.80;99.90;;;;;;4914562;29;20223;-58
2023/05/03 03:09:19;;;;;;;5.47;5.07;;;7.80;99.90;;;;;;4912219;29;20210;-57
2023/05/03 03:11:46;;;;;;;5.63;5.23;;;7.90;99.90;;;;;;4916579;29;20229;-58
2023/05/03 03:14:13;;;;;;;5.20;4.80;;;7.90;99.90;;;;;;4911902;29;20679;-57
2023/05/03 03:16:40;;;;;;;5.53;5.13;;;7.90;99.90;;;;;;4912661;29;20224;-58
2023/05/03 03:19:07;;;;;;;5.37;4.93;;;7.90;99.90;;;;;;4914805;29;20300;-57
2023/05/03 03:21:35;;;;;;;5.07;4.77;;;7.90;99.90;;;;;;4913213;29;20208;-57
2023/05/03 03:24:04;;;;;;;5.60;5.23;;;7.90;99.90;;;;;;4916205;29;20215;-58
2023/05/03 03:26:31;;;;;;;5.60;5.20;;;7.90;99.90;;;;;;4916393;29;20232;-58
2023/05/03 03:28:58;;;;;;;5.10;4.70;;;7.90;99.90;;;;;;4910497;29;20208;-58
2023/05/03 03:31:25;;;;;;;5.40;5.00;;;7.90;99.90;;;;;;4915419;29;20279;-58
2023/05/03 03:33:52;;;;;;;5.30;4.80;;;7.90;99.90;;;;;;4913228;29;20644;-58
2023/05/03 03:36:19;;;;;;;6.00;5.47;;;7.90;99.90;;;;;;4913583;29;20224;-57
2023/05/03 03:38:46;;;;;;;5.97;5.57;;;7.90;99.90;;;;;;4914577;29;20224;-58
2023/05/03 03:41:15;;;;;;;6.97;6.37;;;7.90;99.90;;;;;;4913303;29;20200;-58
2023/05/03 03:43:42;;;;;;;5.77;5.37;;;7.90;99.90;;;;;;4913726;29;20288;-57
2023/05/03 03:46:09;;;;;;;6.27;5.77;;;8.00;99.90;;;;;;4912564;29;20261;-57
2023/05/03 03:48:36;;;;;;;5.67;5.17;;;8.10;99.90;;;;;;4911085;29;20200;-58
2023/05/03 03:51:02;;;;;;;6.50;6.03;;;8.10;99.90;;;;;;4912024;29;20750;-58
2023/05/03 03:53:30;;;;;;;6.93;6.43;;;8.20;99.90;;;;;;4900987;29;20205;-58
2023/05/03 03:55:56;;;;;;;5.73;5.43;;;8.20;99.90;;;;;;4911778;29;20243;-57
2023/05/03 03:58:25;;;;;;;5.03;4.73;;;8.30;99.90;;;;;;4913500;29;20291;-58
2023/05/03 04:00:52;;;;;;;6.13;5.73;;;8.30;99.90;;;;;;4906801;29;20208;-58
2023/05/03 04:03:19;;;;;;;5.50;5.20;;;8.40;99.90;;;;;;4912068;29;20273;-57
2023/05/03 04:05:46;;;;;;;5.80;5.30;;;8.40;99.90;;;;;;4914977;29;20276;-58
2023/05/03 04:08:13;;;;;;;6.90;6.30;;;8.60;99.90;;;;;;4914934;29;20210;-58
2023/05/03 04:10:40;;;;;;;6.37;5.87;;;8.60;99.90;;;;;;4914863;29;20224;-58
2023/05/03 04:13:07;;;;;;;6.40;6.00;;;8.60;99.90;;;;;;4911459;29;20205;-58
2023/05/03 04:15:35;;;;;;;7.37;6.83;;;8.50;99.90;;;;;;4912281;29;20703;-58
2023/05/03 04:18:02;;;;;;;7.53;6.80;;;8.60;99.90;;;;;;4909165;29;20201;-58
2023/05/03 04:20:29;;;;;;;6.80;6.33;;;8.70;99.90;;;;;;4909851;29;20749;-58
2023/05/03 04:22:57;;;;;;;7.63;6.90;;;8.70;99.90;;;;;;4909848;29;20209;-58
2023/05/03 04:25:24;;;;;;;8.23;7.43;;;8.80;99.90;;;;;;4914765;29;20235;-58
2023/05/03 04:27:51;;;;;;;8.73;7.20;;;8.90;99.90;;;;;;4914578;29;20291;-58
2023/05/03 04:30:18;;;;;;;7.33;6.67;;;8.90;99.90;;;;;;4913040;29;20209;-57
2023/05/03 04:32:47;;;;;;;6.77;6.23;;;8.90;99.90;;;;;;4908934;29;20201;-58
2023/05/03 04:35:14;;;;;;;7.37;6.80;;;9.00;99.90;;;;;;4914581;29;20307;-58
2023/05/03 04:37:42;;;;;;;7.37;6.30;;;8.90;99.90;;;;;;4914483;29;20578;-58
2023/05/03 04:40:11;;;;;;;6.90;6.20;;;9.00;99.90;;;;;;4914498;29;20737;-58
2023/05/03 04:42:38;;;;;;;7.90;7.27;;;9.00;99.90;;;;;;4906104;29;20295;-59
2023/05/03 04:45:06;;;;;;;6.67;6.17;;;9.00;99.90;;;;;;4917475;29;20216;-59
2023/05/03 04:47:33;;;;;;;8.13;7.57;;;9.00;99.90;;;;;;4915029;29;20577;-57
2023/05/03 04:50:02;;;;;;;7.70;6.90;;;9.10;99.90;;;;;;4915217;29;20439;-58
2023/05/03 04:52:32;;;;;;;6.13;5.73;;;9.10;99.90;;;;;;4914240;29;20232;-62
2023/05/03 04:54:59;;;;;;;10.10;7.50;;;9.10;99.90;;;;;;4917966;29;20638;-74
2023/05/03 04:57:29;;;;;;;11.83;10.73;;;9.20;99.90;;;;;;4937121;23;20228;-59
2023/05/03 04:59:56;;;;;;;10.77;9.77;;;9.20;99.90;;;;;;4917864;29;20223;-59
2023/05/03 05:02:23;;;;;;;6.80;6.23;;;9.20;99.90;;;;;;4918596;29;20208;-60
2023/05/03 05:04:50;;;;;;;7.87;7.27;;;9.20;99.90;;;;;;4918546;29;20202;-60
2023/05/03 05:07:18;;;;;;;8.70;8.00;;;9.10;99.90;;;;;;4901988;29;20281;-60
2023/05/03 05:09:45;;;;;;;7.27;6.33;;;9.10;99.90;;;;;;4900124;29;20250;-59
2023/05/03 05:12:12;;;;;;;6.43;5.87;;;9.30;99.90;;;;;;4896170;29;20207;-59
2023/05/03 05:14:39;;;;;;;6.70;6.10;;;9.50;99.90;;;;;;4907118;29;20206;-60
2023/05/03 05:17:06;;;;;;;6.97;6.37;;;9.60;99.90;;;;;;4901951;29;20225;-53
2023/05/03 05:19:33;;;;;;;8.07;7.00;;;9.60;99.90;;;;;;4899258;29;20695;-54
2023/05/03 05:22:00;;;;;;;8.10;7.30;;;9.70;99.90;;;;;;4900083;29;20205;-54
2023/05/03 05:24:28;;;;;;;11.27;8.63;;;9.80;99.90;;;;;;4899507;29;20205;-53
2023/05/03 05:26:55;;;;;;;8.97;8.13;;;9.80;99.90;;;;;;4895611;29;20258;-53
2023/05/03 05:29:23;;;;;;;9.40;8.13;;;9.90;99.90;;;;;;4909665;29;20205;-54
2023/05/03 05:31:50;;;;;;;9.73;8.73;;;9.90;99.90;;;;;;4903915;29;20203;-53
2023/05/03 05:34:17;;;;;;;8.20;7.50;;;9.90;99.90;;;;;;4899552;29;20659;-54
2023/05/03 05:36:45;;;;;;;12.13;10.63;;;10.00;99.90;;;;;;4898951;29;20226;-53
2023/05/03 05:39:12;;;;;;;11.20;9.13;;;10.00;99.90;;;;;;4899421;29;20224;-54
2023/05/03 05:41:40;;;;;;;8.73;7.87;;;10.00;99.90;;;;;;4896434;29;20209;-54
2023/05/03 05:44:07;;;;;;;11.43;10.30;;;10.10;99.90;;;;;;4893651;29;20295;-53
2023/05/03 05:46:34;;;;;;;9.03;8.13;;;10.10;99.90;;;;;;4898740;29;20596;-54
2023/05/03 05:49:01;;;;;;;9.30;7.53;;;10.20;99.90;;;;;;4899624;29;20202;-54
2023/05/03 05:51:29;;;;;;;11.13;9.27;;;10.30;99.90;;;;;;4896836;29;20558;-54
2023/05/03 05:53:56;;;;;;;9.87;9.00;;;10.20;99.90;;;;;;4912264;29;20635;-54
2023/05/03 05:56:23;;;;;;;8.30;7.60;;;10.20;99.90;;;;;;4913277;29;20234;-53
2023/05/03 05:58:51;;;;;;;9.73;7.23;;;10.20;99.90;;;;;;4896641;29;20204;-54
2023/05/03 06:01:18;;;;;;;6.93;6.37;;;10.30;99.90;;;;;;4897623;29;20209;-54
2023/05/03 06:03:45;;;;;;;7.87;7.10;;;10.40;99.90;;;;;;4894681;29;20205;-54
2023/05/03 06:06:12;;;;;;;5.80;5.33;;;10.40;99.90;;;;;;4898814;29;20226;-54
2023/05/03 06:08:48;;;;;;;5.57;5.17;;;10.50;99.90;;;;;;4899325;29;20202;-54
2023/05/03 06:11:16;;;;;;;7.70;7.10;;;10.70;99.90;;;;;;4899246;29;20240;-54
2023/05/03 06:13:43;;;;;;;7.33;6.60;;;10.70;99.90;;;;;;4892226;29;20214;-54
2023/05/03 06:16:11;;;;;;;8.33;7.63;;;10.80;99.90;;;;;;4899279;29;20230;-53
2023/05/03 06:18:39;;;;;;;6.70;6.20;;;10.90;99.90;;;;;;4899128;29;20258;-54
2023/05/03 06:21:05;;;;;;;6.20;5.67;;;11.00;99.90;;;;;;4894748;29;20286;-54
2023/05/03 06:23:32;;;;;;;6.10;5.47;;;11.20;99.90;;;;;;4902224;29;20246;-53
2023/05/03 06:25:59;;;;;;;5.23;4.87;;;11.40;99.90;;;;;;4905164;29;20219;-54
2023/05/03 06:28:26;;;;;;;5.87;5.40;;;11.70;99.90;;;;;;4899942;29;20334;-54
2023/05/03 06:30:53;;;;;;;6.57;5.97;;;11.70;99.90;;;;;;4894192;29;20199;-54
2023/05/03 06:33:21;;;;;;;7.67;6.83;;;11.70;99.90;;;;;;4897728;29;20277;-54
2023/05/03 06:35:48;;;;;;;6.90;6.30;;;11.60;99.90;;;;;;4883158;29;20231;-54
2023/05/03 06:38:15;;;;;;;6.67;6.13;;;11.70;99.90;;;;;;4883442;29;20255;-54
2023/05/03 06:40:44;;;;;;;7.50;6.90;;;11.80;99.90;;;;;;4895253;29;20371;-54
2023/05/03 06:43:11;;;;;;;6.47;5.97;;;11.90;99.90;;;;;;4898366;29;20212;-54
2023/05/03 06:45:39;;;;;;;7.07;6.47;;;11.90;99.90;;;;;;4896083;29;20795;-54
2023/05/03 06:48:06;;;;;;;6.77;6.20;;;11.80;99.90;;;;;;4894432;29;20293;-54
2023/05/03 06:50:34;;;;;;;6.70;6.20;;;11.80;99.90;;;;;;4879911;29;20287;-54
2023/05/03 06:53:01;;;;;;;6.50;5.97;;;11.90;99.90;;;;;;4879475;29;20211;-53
2023/05/03 06:55:28;;;;;;;8.00;7.20;;;12.00;99.90;;;;;;4879317;29;20219;-54
2023/05/03 06:57:55;;;;;;;6.77;6.17;;;12.10;99.90;;;;;;4888226;29;20254;-54
2023/05/03 07:00:24;;;;;;;6.40;5.90;;;11.90;99.90;;;;;;4898084;29;20249;-54
2023/05/03 07:02:51;;;;;;;7.20;5.60;;;12.00;99.90;;;;;;4898113;29;20214;-54
2023/05/03 07:05:19;;;;;;;7.40;6.80;;;12.20;99.90;;;;;;4892358;29;20252;-54
2023/05/03 07:07:47;;;;;;;6.87;6.27;;;12.90;99.90;;;;;;4878876;29;20215;-54
2023/05/03 07:10:14;;;;;;;8.70;6.27;;;13.50;99.90;;;;;;4879401;29;20200;-54
2023/05/03 07:12:41;;;;;;;6.47;5.70;;;13.80;99.90;;;;;;4885277;29;20274;-54
2023/05/03 07:15:09;;;;;;;6.90;6.20;;;14.30;99.90;;;;;;4897614;29;20265;-54
2023/05/03 07:17:36;;;;;;;7.03;6.43;;;15.50;99.90;;;;;;4897716;29;20259;-54
2023/05/03 07:20:03;;;;;;;7.70;5.60;;;16.00;99.90;;;;;;4896579;29;20290;-54
2023/05/03 07:22:33;;;;;;;6.40;5.90;;;16.60;99.90;;;;;;4893564;29;20229;-54
2023/05/03 07:25:01;;;;;;;6.40;6.00;;;16.20;99.90;;;;;;4897593;29;20741;-54
2023/05/03 07:27:28;;;;;;;6.67;6.00;;;16.00;99.90;;;;;;4895723;29;20231;-54
2023/05/03 07:29:55;;;;;;;5.77;5.33;;;16.30;99.90;;;;;;4897610;29;20333;-54
2023/05/03 07:32:22;;;;;;;5.87;5.47;;;16.30;99.90;;;;;;4897641;29;20207;-52
2023/05/03 07:34:49;;;;;;;7.10;6.20;;;16.50;99.90;;;;;;4897432;29;20215;-51
2023/05/03 07:37:16;;;;;;;6.73;6.27;;;17.90;99.90;;;;;;4897597;29;20322;-52
2023/05/03 07:39:44;;;;;;;7.10;6.30;;;19.10;99.90;;;;;;4888179;29;20283;-52
2023/05/03 07:42:12;;;;;;;5.90;5.50;;;19.10;99.90;;;;;;4878701;29;20207;-52
2023/05/03 07:44:39;;;;;;;6.10;5.70;;;19.40;99.90;;;;;;4892167;29;20272;-52
2023/05/03 07:47:06;;;;;;;6.07;5.67;;;19.70;99.90;;;;;;4897154;29;20776;-52
2023/05/03 07:49:35;;;;;;;5.00;4.70;;;19.60;99.90;;;;;;4897158;29;20203;-51
2023/05/03 07:52:02;;;;;;;5.67;5.27;;;20.30;99.90;;;;;;4897382;29;20214;-52
2023/05/03 07:54:29;;;;;;;5.90;5.50;;;20.90;99.90;;;;;;4896943;29;20207;-52
2023/05/03 07:56:56;;;;;;;5.10;4.90;;;21.40;99.90;;;;;;4889063;29;20243;-52
2023/05/03 07:59:24;;;;;;;5.40;5.17;;;21.60;99.90;;;;;;4890085;29;20267;-52
2023/05/03 08:01:51;;;;;;;7.57;5.43;;;21.70;99.90;;;;;;4897037;29;20203;-52
2023/05/03 08:04:18;;;;;;;5.50;5.20;;;21.80;99.90;;;;;;4896875;29;20211;-52
2023/05/03 08:06:45;;;;;;;5.90;5.47;;;22.20;99.90;;;;;;4896938;29;20302;-52
2023/05/03 08:09:12;;;;;;;5.83;5.43;;;22.20;99.90;;;;;;4897009;29;20210;-52
2023/05/03 08:11:39;;;;;;;5.33;5.03;;;21.80;99.90;;;;;;4897290;29;20203;-52
2023/05/03 08:14:06;;;;;;;5.90;5.50;;;21.90;99.90;;;;;;4884911;29;20245;-52
2023/05/03 08:16:34;;;;;;;6.73;6.23;;;22.00;99.90;;;;;;4896729;29;20226;-52
2023/05/03 08:19:01;;;;;;;7.60;7.20;;;21.40;99.90;;;;;;4896749;29;20911;-51
2023/05/03 08:21:29;;;;;;;6.23;5.93;;;21.30;99.90;;;;;;4896834;29;20223;-52
2023/05/03 08:23:56;;;;;;;6.17;5.80;;;21.40;99.90;;;;;;4896702;29;20211;-52
2023/05/03 08:26:23;;;;;;;6.40;6.00;;;21.60;99.90;;;;;;4896853;29;20230;-52
2023/05/03 08:28:50;;;;;;;5.83;5.20;;;22.00;99.90;;;;;;4896922;29;20266;-52
2023/05/03 08:31:16;;;;;;;6.13;5.80;;;22.50;99.90;;;;;;4885114;29;20207;-52
2023/05/03 08:33:45;;;;;;;6.47;6.07;;;23.00;99.90;;;;;;4883780;29;20689;-52
2023/05/03 08:36:12;;;;;;;5.83;5.53;;;23.60;99.90;;;;;;4896385;29;20230;-52
2023/05/03 08:38:40;;;;;;;5.87;5.47;;;23.20;99.90;;;;;;4896625;29;20214;-55
2023/05/03 08:41:17;;;;;;;6.00;5.70;;;23.70;99.90;;;;;;4896470;29;20318;-53
2023/05/03 08:43:45;;;;;;;5.67;5.37;;;23.50;99.90;;;;;;4894845;29;20206;-53
2023/05/03 08:46:13;;;;;;;4.87;4.67;;;22.90;99.90;;;;;;4892371;29;20231;-52
2023/05/03 08:48:40;;;;;;;4.87;4.67;;;23.00;99.90;;;;;;4893017;29;20209;-52
2023/05/03 08:51:09;;;;;;;5.13;4.93;;;23.20;99.90;;;;;;4902747;29;20254;-52
2023/05/03 08:53:37;;;;;;;6.03;5.53;;;22.90;99.90;;;;;;4914135;29;20295;-52
2023/05/03 08:56:07;;;;;;;5.13;4.93;;;23.10;99.90;;;;;;4914240;29;20226;-52
2023/05/03 08:58:36;;;;;;;6.47;6.07;;;23.00;99.90;;;;;;4914476;29;20209;-52
2023/05/03 09:01:07;;;;;;;5.83;5.53;;;22.30;99.90;;;;;;4900330;29;20228;-52
2023/05/03 09:03:34;;;;;;;5.50;5.20;;;22.70;99.90;;;;;;4894123;29;20204;-53
2023/05/03 09:06:01;;;;;;;5.87;5.40;;;22.80;99.90;;;;;;4895803;29;20270;-53
2023/05/03 09:08:31;;;;;;;6.03;5.63;;;23.20;99.90;;;;;;4896512;29;20630;-53
2023/05/03 09:10:58;;;;;;;5.57;5.27;;;23.80;99.90;;;;;;4896686;29;20239;-53
2023/05/03 09:13:31;;;;;;;4.93;4.70;;;24.20;99.90;;;;;;4896509;29;20591;-53
2023/05/03 09:15:58;;;;;;;5.27;4.97;;;24.40;99.90;;;;;;4892854;29;20566;-53
2023/05/03 09:18:25;;;;;;;6.00;5.60;;;24.30;99.90;;;;;;4894233;29;20200;-53
2023/05/03 09:20:52;;;;;;;5.70;5.40;;;24.50;99.90;;;;;;4895069;29;20692;-52
2023/05/03 09:23:31;;;;;;;5.40;5.17;;;24.10;99.90;;;;;;4896429;29;20248;-52
2023/05/03 09:25:59;;;;;;;5.37;4.97;;;23.70;99.90;;;;;;4894297;29;20223;-52
2023/05/03 09:28:26;;;;;;;5.70;5.30;;;23.20;99.90;;;;;;4896567;29;20294;-53
2023/05/03 09:31:06;;;;;;;5.03;4.83;;;23.30;99.90;;;;;;4899355;29;20577;-52
2023/05/03 09:33:33;;;;;;;4.37;4.17;;;23.50;99.90;;;;;;4892341;29;20556;-52
2023/05/03 09:36:02;;;;;;;4.43;4.23;;;23.00;99.90;;;;;;4899968;29;20267;-52
2023/05/03 09:38:32;;;;;;;3.70;3.50;;;23.10;99.90;;;;;;4896824;29;20290;-53
2023/05/03 09:41:00;;;;;;;4.60;4.30;;;22.90;99.90;;;;;;4899821;29;20226;-52
2023/05/03 09:43:27;;;;;;;2.80;2.70;;;23.40;99.90;;;;;;4899479;29;20666;-53
2023/05/03 09:46:08;;;;;;;3.90;3.60;;;23.80;99.90;;;;;;4914709;29;20247;-53
2023/05/03 09:48:36;;;;;;;3.40;3.10;;;23.90;99.90;;;;;;4897294;29;20259;-52
2023/05/03 09:51:04;;;;;;;3.53;3.43;;;23.70;99.90;;;;;;4899610;29;20202;-52
2023/05/03 09:53:33;;;;;;;2.77;2.67;;;23.30;99.90;;;;;;4899443;29;20200;-53
2023/05/03 09:56:02;;;;;;;3.13;2.93;;;23.70;99.90;;;;;;4897364;29;20278;-52
2023/05/03 09:58:29;;;;;;;3.13;2.90;;;23.70;99.90;;;;;;4899378;29;20558;-53
2023/05/03 10:00:57;;;;;;;2.70;2.53;;;24.00;99.90;;;;;;4898616;29;20258;-53
2023/05/03 10:03:32;;;;;;;2.40;2.40;;;24.50;99.90;;;;;;4897466;29;20267;-53
2023/05/03 10:06:03;;;;;;;2.50;2.40;;;24.20;99.90;;;;;;4899174;29;20219;-53
2023/05/03 10:08:35;;;;;;;2.00;1.90;;;23.90;99.90;;;;;;4899555;29;20214;-52
2023/05/03 10:11:03;;;;;;;2.13;2.03;;;24.20;99.90;;;;;;4899334;29;20204;-52
2023/05/03 10:13:31;;;;;;;2.70;2.70;;;24.70;99.90;;;;;;4896606;29;20744;-52
2023/05/03 10:16:01;;;;;;;2.50;2.27;;;25.00;99.90;;;;;;4899252;29;20229;-53
2023/05/03 10:18:31;;;;;;;2.87;2.70;;;24.40;99.90;;;;;;4913793;29;20206;-54
2023/05/03 10:21:03;;;;;;;2.70;2.60;;;24.40;99.90;;;;;;4897029;29;20220;-53
2023/05/03 10:23:30;;;;;;;3.97;3.63;;;24.20;99.90;;;;;;4898718;29;20199;-53
2023/05/03 10:26:16;;;;;;;3.20;3.00;;;24.50;99.90;;;;;;4899224;29;20219;-53
2023/05/03 10:28:43;;;;;;;3.53;3.43;;;24.00;99.90;;;;;;4898291;29;20275;-52
2023/05/03 10:31:45;;;;;;;3.47;3.30;;;23.60;99.90;;;;;;4897559;29;20199;-53
2023/05/03 10:34:22;;;;;;;3.53;3.43;;;23.60;99.90;;;;;;4899241;29;20206;-52
2023/05/03 10:36:52;;;;;;;3.73;3.00;;;23.70;99.90;;;;;;4903636;29;20222;-52
2023/05/03 10:39:19;;;;;;;2.90;2.80;;;24.00;99.90;;;;;;4899896;29;20210;-53
2023/05/03 10:41:58;;;;;;;3.67;3.47;;;24.20;99.90;;;;;;4898741;29;20226;-53
2023/05/03 10:44:34;;;;;;;2.50;2.37;;;23.60;99.90;;;;;;4898532;29;20665;-53
2023/05/03 10:47:11;;;;;;;3.20;3.10;;;24.00;99.90;;;;;;4895437;29;20222;-53
2023/05/03 10:49:38;;;;;;;3.07;2.97;;;23.30;99.90;;;;;;4898686;29;20203;-53
2023/05/03 10:52:40;;;;;;;3.73;3.53;;;22.90;99.90;;;;;;4894874;29;20196;-52
2023/05/03 10:55:10;;;;;;;3.70;3.40;;;22.40;99.90;;;;;;4895864;29;20210;-52
2023/05/03 10:57:41;;;;;;;3.03;2.93;;;22.20;99.90;;;;;;4933454;23;20272;-58
2023/05/03 11:00:15;;;;;;;3.93;3.80;;;21.80;99.90;;;;;;4915879;29;20621;-58
2023/05/03 11:02:58;;;;;;;4.60;4.30;;;21.30;99.90;;;;;;4915603;29;20305;-58
2023/05/03 11:05:28;;;;;;;4.30;4.07;;;21.00;99.90;;;;;;4915861;29;20199;-58
2023/05/03 11:08:08;;;;;;;3.50;3.30;;;20.70;99.90;;;;;;4915104;29;20732;-58
2023/05/03 11:10:35;;;;;;;4.07;3.87;;;21.10;99.90;;;;;;4915126;29;20455;-58
2023/05/03 11:13:03;;;;;;;3.53;3.40;;;21.30;99.90;;;;;;4895907;29;20203;-58
2023/05/03 11:15:30;;;;;;;5.37;5.07;;;21.50;99.90;;;;;;4897481;29;20228;-58
2023/05/03 11:17:57;;;;;;;4.33;4.13;;;20.50;99.90;;;;;;4897480;29;20230;-59
2023/05/03 11:20:25;;;;;;;4.80;4.60;;;20.40;99.90;;;;;;4897024;29;20203;-58
2023/05/03 11:22:52;;;;;;;4.37;4.17;;;20.40;99.90;;;;;;4896977;29;20199;-58
2023/05/03 11:25:19;;;;;;;5.13;4.83;;;20.70;99.90;;;;;;4897268;29;20203;-58
2023/05/03 11:27:47;;;;;;;5.43;5.13;;;20.90;99.90;;;;;;4897382;29;20279;-58
2023/05/03 11:30:16;;;;;;;4.73;4.43;;;20.60;99.90;;;;;;4892590;29;20209;-59
2023/05/03 11:32:44;;;;;;;4.57;4.37;;;20.40;99.90;;;;;;4896823;29;20263;-58
2023/05/03 11:35:14;;;;;;;4.73;4.47;;;20.60;99.90;;;;;;4897161;29;20282;-58
2023/05/03 11:37:42;;;;;;;4.70;4.40;;;20.50;99.90;;;;;;4896148;29;20710;-58
2023/05/03 11:40:16;;;;;;;4.77;4.47;;;20.60;99.90;;;;;;4897112;29;20200;-58
2023/05/03 11:43:01;;;;;;;4.67;4.47;;;20.50;99.90;;;;;;4892983;29;20333;-57
2023/05/03 11:45:32;;;;;;;4.40;4.17;;;20.40;99.90;;;;;;4897057;29;20588;-59
2023/05/03 11:47:59;;;;;;;4.70;3.53;;;20.40;99.90;;;;;;4892409;29;20234;-58
2023/05/03 11:50:45;;;;;;;5.53;5.13;;;20.50;99.90;;;;;;4894008;29;20211;-58
2023/05/03 11:53:12;;;;;;;4.50;4.30;;;20.60;99.90;;;;;;4895595;29;20686;-58
2023/05/03 11:55:41;;;;;;;5.27;3.90;;;20.40;99.90;;;;;;4880440;29;20754;-58
2023/05/03 11:58:09;;;;;;;4.23;3.93;;;20.70;99.90;;;;;;4896042;29;20203;-57
2023/05/03 12:00:38;;;;;;;3.97;3.80;;;20.80;99.90;;;;;;4896414;29;20358;-59
2023/05/03 12:03:07;;;;;;;4.97;4.70;;;20.60;99.90;;;;;;4896869;29;20302;-57
2023/05/03 12:05:34;;;;;;;4.63;4.43;;;20.20;99.90;;;;;;4892316;29;20207;-59
2023/05/03 12:08:01;;;;;;;4.17;3.97;;;19.80;99.90;;;;;;4892862;29;20585;-57
2023/05/03 12:10:32;;;;;;;4.70;4.30;;;19.70;99.90;;;;;;4896269;29;20258;-58
2023/05/03 12:13:00;;;;;;;4.63;4.40;;;19.70;99.90;;;;;;4895128;29;20231;-58
2023/05/03 12:15:31;;;;;;;3.37;3.27;;;19.80;99.90;;;;;;4895989;29;20203;-58
2023/05/03 12:18:01;;;;;;;2.97;2.87;;;19.60;99.90;;;;;;4895590;29;20223;-58
2023/05/03 12:20:30;;;;;;;3.80;3.40;;;19.60;99.90;;;;;;4893498;29;20218;-58
2023/05/03 12:23:02;;;;;;;3.40;3.20;;;19.70;99.90;;;;;;4895226;29;20227;-58
2023/05/03 12:25:30;;;;;;;3.80;3.57;;;19.70;99.90;;;;;;4896109;29;20226;-58
2023/05/03 12:27:58;;;;;;;3.20;3.03;;;19.50;99.90;;;;;;4893748;29;20311;-58
2023/05/03 12:30:26;;;;;;;3.27;3.17;;;19.40;99.90;;;;;;4895920;29;20685;-58
2023/05/03 12:32:53;;;;;;;3.47;3.17;;;19.50;99.90;;;;;;4895704;29;20281;-58
2023/05/03 12:35:22;;;;;;;2.30;2.30;;;19.50;99.90;;;;;;4895902;29;20208;-58
2023/05/03 12:37:50;;;;;;;3.30;3.20;;;19.60;99.90;;;;;;4893637;29;20709;-58
2023/05/03 12:40:19;;;;;;;3.63;3.33;;;19.80;99.90;;;;;;4893223;29;20262;-58
2023/05/03 12:42:46;;;;;;;3.67;3.47;;;19.80;99.90;;;;;;4891972;29;20221;-58
2023/05/03 12:45:13;;;;;;;3.27;3.10;;;19.70;99.90;;;;;;4890728;29;20630;-60
2023/05/03 12:47:40;;;;;;;3.23;3.13;;;19.80;99.90;;;;;;4891890;29;20219;-58
2023/05/03 12:50:09;;;;;;;2.97;2.80;;;19.80;99.90;;;;;;4895392;29;20207;-59
2023/05/03 12:52:38;;;;;;;3.00;2.90;;;20.00;99.90;;;;;;4895309;29;20203;-58
2023/05/03 12:55:06;;;;;;;4.00;3.53;;;20.00;99.90;;;;;;4893897;29;20207;-58
2023/05/03 12:57:34;;;;;;;3.53;3.43;;;19.70;99.90;;;;;;4895755;29;20231;-57